createdAt,value
2019-02-16T00:00:48.286Z,4.30
2019-02-16T00:03:36.064Z,3.90
2019-02-16T00:06:05.522Z,4.70
2019-02-16T00:08:33.989Z,4.17
2019-02-16T00:11:10.491Z,4.67
2019-02-16T00:13:38.959Z,4.70
2019-02-16T00:16:07.381Z,4.20
2019-02-16T00:18:35.823Z,4.40
2019-02-16T00:21:04.479Z,5.00
2019-02-16T00:23:33.998Z,4.00
2019-02-16T00:26:02.446Z,4.90
2019-02-16T00:28:30.899Z,5.07
2019-02-16T00:30:59.332Z,4.70
2019-02-16T00:33:27.776Z,4.20
2019-02-16T00:35:56.297Z,4.20
2019-02-16T00:38:24.801Z,4.97
2019-02-16T00:40:53.236Z,4.10
2019-02-16T00:43:21.680Z,5.43
2019-02-16T00:45:54.193Z,4.20
2019-02-16T00:48:22.711Z,4.80
2019-02-16T00:50:51.135Z,4.50
2019-02-16T00:53:19.669Z,4.10
2019-02-16T00:56:07.436Z,4.93
2019-02-16T00:58:35.908Z,4.90
2019-02-16T01:01:04.349Z,4.87
2019-02-16T01:03:35.230Z,4.77
2019-02-16T01:06:04.542Z,4.50
2019-02-16T01:08:32.993Z,4.50
2019-02-16T01:11:01.437Z,4.30
2019-02-16T01:13:30.053Z,4.87
2019-02-16T01:15:58.493Z,5.20
2019-02-16T01:18:27.006Z,4.47
2019-02-16T01:20:55.520Z,4.50
2019-02-16T01:23:23.951Z,4.87
2019-02-16T01:25:52.408Z,4.73
2019-02-16T01:28:20.838Z,5.03
2019-02-16T01:30:49.276Z,4.90
2019-02-16T01:33:18.692Z,4.57
2019-02-16T01:35:47.147Z,4.23
2019-02-16T01:38:15.571Z,4.20
2019-02-16T01:40:44.028Z,5.47
2019-02-16T01:43:14.816Z,5.37
2019-02-16T01:45:43.268Z,4.93
2019-02-16T01:48:11.697Z,4.40
2019-02-16T01:50:40.155Z,6.57
2019-02-16T01:53:11.010Z,5.00
2019-02-16T01:55:39.451Z,5.00
2019-02-16T01:58:07.884Z,4.70
2019-02-16T02:00:37.877Z,4.53
2019-02-16T02:03:06.351Z,5.30
2019-02-16T02:05:34.794Z,4.63
2019-02-16T02:08:09.493Z,5.53
2019-02-16T02:10:37.990Z,4.40
2019-02-16T02:13:06.584Z,5.10
2019-02-16T02:15:35.032Z,4.30
2019-02-16T02:18:03.543Z,4.00
2019-02-16T02:20:31.980Z,4.63
2019-02-16T02:23:00.426Z,4.90
2019-02-16T02:25:28.902Z,4.40
2019-02-16T02:27:57.387Z,5.10
2019-02-16T02:30:25.824Z,5.00
2019-02-16T02:32:54.264Z,5.57
2019-02-16T02:35:24.878Z,5.03
2019-02-16T02:37:53.335Z,5.10
2019-02-16T02:40:21.774Z,8.23
2019-02-16T02:42:59.116Z,4.97
2019-02-16T02:45:27.622Z,5.30
2019-02-16T02:47:56.151Z,5.20
2019-02-16T02:50:27.422Z,5.10
2019-02-16T02:52:56.674Z,5.63
2019-02-16T02:55:25.284Z,5.00
2019-02-16T02:57:53.721Z,5.93
2019-02-16T03:00:22.228Z,5.13
2019-02-16T03:02:50.658Z,5.80
2019-02-16T03:05:19.115Z,4.73
2019-02-16T03:07:49.073Z,5.87
2019-02-16T03:10:17.568Z,5.20
2019-02-16T03:12:52.665Z,4.97
2019-02-16T03:15:18.638Z,5.63
2019-02-16T03:17:47.075Z,5.53
2019-02-16T03:20:15.530Z,5.83
2019-02-16T03:23:09.892Z,5.00
2019-02-16T03:25:40.632Z,4.80
2019-02-16T03:28:29.589Z,5.97
2019-02-16T03:31:24.100Z,5.80
2019-02-16T03:34:05.413Z,5.40
2019-02-16T03:36:55.116Z,6.80
2019-02-16T03:39:23.619Z,5.60
2019-02-16T03:41:58.234Z,5.60
2019-02-16T03:44:26.654Z,5.07
2019-02-16T03:46:55.104Z,5.43
2019-02-16T03:49:23.620Z,4.97
2019-02-16T03:52:13.768Z,5.30
2019-02-16T03:54:38.802Z,5.70
2019-02-16T03:57:07.313Z,5.60
2019-02-16T03:59:35.760Z,5.40
2019-02-16T04:02:04.187Z,6.00
2019-02-16T04:04:32.641Z,5.93
2019-02-16T04:07:07.369Z,6.40
2019-02-16T04:09:50.597Z,5.33
2019-02-16T04:12:19.103Z,5.20
2019-02-16T04:14:50.218Z,5.80
2019-02-16T04:17:17.695Z,5.50
2019-02-16T04:19:46.150Z,6.40
2019-02-16T04:22:24.313Z,5.50
2019-02-16T04:24:47.674Z,5.83
2019-02-16T04:27:20.523Z,6.43
2019-02-16T04:29:51.268Z,6.10
2019-02-16T04:32:19.714Z,5.60
2019-02-16T04:34:48.234Z,5.97
2019-02-16T04:37:16.729Z,5.57
2019-02-16T04:39:45.293Z,5.70
2019-02-16T04:42:13.764Z,6.03
2019-02-16T04:44:45.241Z,5.03
2019-02-16T04:47:13.691Z,5.57
2019-02-16T04:49:42.136Z,5.53
2019-02-16T04:52:14.384Z,6.40
2019-02-16T04:54:42.901Z,5.77
2019-02-16T04:57:11.343Z,6.10
2019-02-16T04:59:42.824Z,6.70
2019-02-16T05:02:11.375Z,6.40
2019-02-16T05:04:39.799Z,5.13
2019-02-16T05:07:08.252Z,6.07
2019-02-16T05:09:36.710Z,6.20
2019-02-16T05:12:05.224Z,5.60
2019-02-16T05:14:33.662Z,6.30
2019-02-16T05:17:03.913Z,5.90
2019-02-16T05:19:33.609Z,6.17
2019-02-16T05:22:02.085Z,5.27
2019-02-16T05:24:30.516Z,5.77
2019-02-16T05:26:58.952Z,5.90
2019-02-16T05:29:46.774Z,5.80
2019-02-16T05:32:15.283Z,6.63
2019-02-16T05:34:43.761Z,5.80
2019-02-16T05:37:12.188Z,5.50
2019-02-16T05:39:40.644Z,6.60
2019-02-16T05:42:09.063Z,6.13
2019-02-16T05:44:42.096Z,5.50
2019-02-16T05:47:10.569Z,5.80
2019-02-16T05:49:39.097Z,6.47
2019-02-16T05:52:09.493Z,5.77
2019-02-16T05:54:37.723Z,6.10
2019-02-16T05:57:10.513Z,6.50
2019-02-16T05:59:38.967Z,6.87
2019-02-16T06:02:07.400Z,6.53
2019-02-16T06:04:39.371Z,6.83
2019-02-16T06:07:15.694Z,6.47
2019-02-16T06:09:44.167Z,6.50
2019-02-16T06:12:14.851Z,7.20
2019-02-16T06:14:42.846Z,5.97
2019-02-16T06:17:13.276Z,6.27
2019-02-16T06:19:41.527Z,6.77
2019-02-16T06:22:09.970Z,6.50
2019-02-16T06:24:41.301Z,6.40
2019-02-16T06:27:11.875Z,6.80
2019-02-16T06:29:40.320Z,6.50
2019-02-16T06:32:08.756Z,6.73
2019-02-16T06:34:37.201Z,6.17
2019-02-16T06:37:17.307Z,6.10
2019-02-16T06:39:46.137Z,6.70
2019-02-16T06:42:19.066Z,6.57
2019-02-16T06:44:47.566Z,6.70
2019-02-16T06:47:16.068Z,5.97
2019-02-16T06:49:44.540Z,6.47
2019-02-16T06:52:12.995Z,7.00
2019-02-16T06:54:41.424Z,6.93
2019-02-16T06:57:17.472Z,6.83
2019-02-16T06:59:45.976Z,6.93
2019-02-16T07:02:14.499Z,6.73
2019-02-16T07:04:44.064Z,6.50
2019-02-16T07:07:16.297Z,6.50
2019-02-16T07:09:46.062Z,5.50
2019-02-16T07:12:14.475Z,6.33
2019-02-16T07:14:42.927Z,6.57
2019-02-16T07:17:13.017Z,6.50
2019-02-16T07:19:43.082Z,6.63
2019-02-16T07:22:11.536Z,6.73
2019-02-16T07:24:39.968Z,6.00
2019-02-16T07:27:08.424Z,7.00
2019-02-16T07:29:36.960Z,6.13
2019-02-16T07:32:05.465Z,7.23
2019-02-16T07:34:35.520Z,6.70
2019-02-16T07:37:04.010Z,6.70
2019-02-16T07:39:32.554Z,6.60
2019-02-16T07:42:01.044Z,6.20
2019-02-16T07:44:31.129Z,6.93
2019-02-16T07:47:19.595Z,7.10
2019-02-16T07:49:55.665Z,7.57
2019-02-16T07:53:02.805Z,6.43
2019-02-16T07:55:34.894Z,6.07
2019-02-16T07:58:04.685Z,6.80
2019-02-16T08:00:46.016Z,6.80
2019-02-16T08:03:18.568Z,5.83
2019-02-16T08:05:57.713Z,7.47
2019-02-16T08:08:28.804Z,7.03
2019-02-16T08:11:01.359Z,6.97
2019-02-16T08:13:31.427Z,6.47
2019-02-16T08:16:04.248Z,6.53
2019-02-16T08:18:41.384Z,6.57
2019-02-16T08:21:20.401Z,6.70
2019-02-16T08:24:21.040Z,6.13
2019-02-16T08:27:02.578Z,6.50
2019-02-16T08:29:39.864Z,6.17
2019-02-16T08:32:23.360Z,6.77
2019-02-16T08:34:53.447Z,6.10
2019-02-16T08:37:32.099Z,6.30
2019-02-16T08:40:14.160Z,6.90
2019-02-16T08:42:42.730Z,5.97
2019-02-16T08:45:28.737Z,6.20
2019-02-16T08:48:01.728Z,6.80
2019-02-16T08:50:34.823Z,6.37
2019-02-16T08:53:04.915Z,6.73
2019-02-16T08:55:48.836Z,7.00
2019-02-16T08:58:20.972Z,6.67
2019-02-16T09:00:54.079Z,6.37
2019-02-16T09:03:33.171Z,8.43
2019-02-16T09:06:19.450Z,7.83
2019-02-16T09:08:49.520Z,6.70
2019-02-16T09:11:28.571Z,7.63
2019-02-16T09:13:58.830Z,6.83
2019-02-16T09:16:47.107Z,7.00
2019-02-16T09:19:28.297Z,6.37
2019-02-16T09:22:03.192Z,6.70
2019-02-16T09:24:51.561Z,7.10
2019-02-16T09:27:30.963Z,7.10
2019-02-16T09:30:07.624Z,7.80
2019-02-16T09:32:43.624Z,7.70
2019-02-16T09:35:13.737Z,6.40
2019-02-16T09:37:49.647Z,6.83
2019-02-16T09:40:19.731Z,6.43
2019-02-16T09:42:49.844Z,7.83
2019-02-16T09:45:22.949Z,7.20
2019-02-16T09:47:55.736Z,7.20
2019-02-16T09:50:28.117Z,8.60
2019-02-16T09:53:17.009Z,8.90
2019-02-16T09:56:03.232Z,7.60
2019-02-16T09:58:45.372Z,6.90
2019-02-16T10:01:18.165Z,7.10
2019-02-16T10:04:07.604Z,7.70
2019-02-16T10:06:43.464Z,7.20
2019-02-16T10:09:19.393Z,7.57
2019-02-16T10:11:52.680Z,7.63
2019-02-16T10:14:22.784Z,8.67
2019-02-16T10:17:09.995Z,7.83
2019-02-16T10:19:42.732Z,7.67
2019-02-16T10:22:15.679Z,7.77
2019-02-16T10:25:14.304Z,6.90
2019-02-16T10:27:50.643Z,6.90
2019-02-16T10:30:27.899Z,7.20
2019-02-16T10:33:14.259Z,8.23
2019-02-16T10:35:50.350Z,7.30
2019-02-16T10:38:23.384Z,8.70
2019-02-16T10:40:53.501Z,8.87
2019-02-16T10:43:29.319Z,7.53
2019-02-16T10:46:17.630Z,7.97
2019-02-16T10:48:50.167Z,7.60
2019-02-16T10:51:36.733Z,8.87
2019-02-16T10:54:06.813Z,7.73
2019-02-16T10:56:49.718Z,8.20
2019-02-16T10:59:19.803Z,8.13
2019-02-16T11:02:05.177Z,8.40
2019-02-16T11:04:38.694Z,9.00
2019-02-16T11:07:14.967Z,9.20
2019-02-16T11:09:53.755Z,8.40
2019-02-16T11:12:23.883Z,8.50
2019-02-16T11:14:56.515Z,8.80
2019-02-16T11:17:29.605Z,8.20
2019-02-16T11:20:05.475Z,8.50
2019-02-16T11:22:42.353Z,8.20
2019-02-16T11:25:27.283Z,7.90
2019-02-16T11:27:58.556Z,9.17
2019-02-16T11:30:37.266Z,8.20
2019-02-16T11:33:07.377Z,9.47
2019-02-16T11:35:40.517Z,8.10
2019-02-16T11:38:10.607Z,8.30
2019-02-16T11:40:40.703Z,7.97
2019-02-16T11:43:17.312Z,8.63
2019-02-16T11:45:50.181Z,8.17
2019-02-16T11:48:32.329Z,8.47
2019-02-16T11:51:36.792Z,7.80
2019-02-16T11:54:21.745Z,8.70
2019-02-16T11:56:51.888Z,9.33
2019-02-16T11:59:38.249Z,9.17
2019-02-16T12:02:08.427Z,9.33
2019-02-16T12:04:38.603Z,8.07
2019-02-16T12:07:11.961Z,8.63
2019-02-16T12:09:58.260Z,9.03
2019-02-16T12:12:51.712Z,13.17
2019-02-16T12:15:21.816Z,8.70
2019-02-16T12:18:00.987Z,9.57
2019-02-16T12:20:37.125Z,9.07
2019-02-16T12:23:07.268Z,8.90
2019-02-16T12:25:37.715Z,7.97
2019-02-16T12:28:24.109Z,10.37
2019-02-16T12:31:00.210Z,8.03
2019-02-16T12:33:42.568Z,8.90
2019-02-16T12:36:22.102Z,9.00
2019-02-16T12:38:52.271Z,9.17
2019-02-16T12:41:22.377Z,9.27
2019-02-16T12:44:30.216Z,10.60
2019-02-16T12:47:09.388Z,10.20
2019-02-16T12:49:48.873Z,9.10
2019-02-16T12:52:28.049Z,9.03
2019-02-16T12:55:14.912Z,10.10
2019-02-16T12:57:56.791Z,9.90
2019-02-16T13:00:29.523Z,10.03
2019-02-16T13:02:59.641Z,11.50
2019-02-16T13:05:33.493Z,10.77
2019-02-16T13:08:21.704Z,9.97
2019-02-16T13:10:54.739Z,10.40
2019-02-16T13:13:39.680Z,10.27
2019-02-16T13:16:15.755Z,9.40
2019-02-16T13:19:00.884Z,9.60
2019-02-16T13:21:40.260Z,10.07
2019-02-16T13:24:26.820Z,10.17
2019-02-16T13:27:02.684Z,11.37
2019-02-16T13:29:32.865Z,9.60
2019-02-16T13:35:16.784Z,9.30
2019-02-16T13:37:52.653Z,11.13
2019-02-16T13:40:34.600Z,10.80
2019-02-16T13:43:04.688Z,10.07
2019-02-16T13:45:43.675Z,13.17
2019-02-16T13:48:33.100Z,9.80
2019-02-16T13:51:03.188Z,9.40
2019-02-16T13:53:33.282Z,10.87
2019-02-16T13:56:12.045Z,9.70
2019-02-16T13:58:42.256Z,9.50
2019-02-16T14:01:12.360Z,9.37
2019-02-16T14:03:42.468Z,9.27
2019-02-16T14:06:18.261Z,11.50
2019-02-16T14:08:51.139Z,10.47
2019-02-16T14:11:21.231Z,9.40
2019-02-16T14:14:03.544Z,11.00
2019-02-16T14:16:42.268Z,9.40
2019-02-16T14:19:11.094Z,10.53
2019-02-16T14:21:39.581Z,9.10
2019-02-16T14:24:08.037Z,10.27
2019-02-16T14:26:36.511Z,11.03
2019-02-16T14:29:05.135Z,11.00
2019-02-16T14:31:33.595Z,10.17
2019-02-16T14:34:03.078Z,10.20
2019-02-16T14:36:31.554Z,11.80
2019-02-16T14:39:01.755Z,10.73
2019-02-16T14:41:30.278Z,12.33
2019-02-16T14:44:18.081Z,10.50
2019-02-16T14:46:46.621Z,13.20
2019-02-16T14:49:15.072Z,12.83
2019-02-16T14:51:43.520Z,11.83
2019-02-16T14:54:11.990Z,10.90
2019-02-16T14:56:41.279Z,12.00
2019-02-16T14:59:09.839Z,10.00
2019-02-16T15:01:38.299Z,12.03
2019-02-16T15:04:06.783Z,9.30
2019-02-16T15:06:36.512Z,11.63
2019-02-16T15:09:06.474Z,11.53
2019-02-16T15:11:54.260Z,9.30
2019-02-16T15:14:22.737Z,9.07
2019-02-16T15:16:52.201Z,10.20
2019-02-16T15:19:20.706Z,9.60
2019-02-16T15:21:49.236Z,11.43
2019-02-16T15:24:17.700Z,10.27
2019-02-16T15:26:46.155Z,11.37
2019-02-16T15:29:14.619Z,10.63
2019-02-16T15:31:43.132Z,9.20
2019-02-16T15:34:11.580Z,10.90
2019-02-16T15:36:40.155Z,11.37
2019-02-16T15:39:08.990Z,12.30
2019-02-16T15:41:37.577Z,9.80
2019-02-16T15:44:06.181Z,9.77
2019-02-16T15:46:34.686Z,10.40
2019-02-16T15:49:03.355Z,10.70
2019-02-16T15:51:31.873Z,10.97
2019-02-16T15:54:00.330Z,11.00
2019-02-16T15:56:28.869Z,9.93
2019-02-16T15:58:57.371Z,11.33
2019-02-16T16:01:25.884Z,11.73
2019-02-16T16:03:54.387Z,11.33
2019-02-16T16:06:23.352Z,12.13
2019-02-16T16:08:56.187Z,10.70
2019-02-16T16:11:26.315Z,10.40
2019-02-16T16:14:08.843Z,12.13
2019-02-16T16:16:55.573Z,11.23
2019-02-16T16:19:25.748Z,10.90
2019-02-16T16:21:58.549Z,11.73
2019-02-16T16:24:34.239Z,10.90
2019-02-16T16:27:13.472Z,11.00
2019-02-16T16:29:55.886Z,11.40
2019-02-16T16:32:29.126Z,11.37
2019-02-16T16:34:59.445Z,10.63
2019-02-16T16:37:29.527Z,10.57
2019-02-16T16:40:03.019Z,11.80
2019-02-16T16:42:49.768Z,11.90
2019-02-16T16:45:31.908Z,13.03
2019-02-16T16:48:08.906Z,11.77
2019-02-16T16:50:51.121Z,11.30
2019-02-16T16:53:36.259Z,11.10
2019-02-16T16:56:08.984Z,11.33
2019-02-16T16:58:39.092Z,11.50
2019-02-16T17:01:09.204Z,12.80
2019-02-16T17:03:48.252Z,11.57
2019-02-16T17:06:18.456Z,11.03
2019-02-16T17:09:07.041Z,13.97
2019-02-16T17:11:49.591Z,17.57
2019-02-16T17:14:22.368Z,14.00
2019-02-16T17:17:01.348Z,19.30
2019-02-16T17:19:31.428Z,20.77
2019-02-16T17:22:01.546Z,16.17
2019-02-16T17:24:31.712Z,13.70
2019-02-16T17:27:19.631Z,15.63
2019-02-16T17:30:02.955Z,13.70
2019-02-16T17:32:33.298Z,11.90
2019-02-16T17:35:13.429Z,13.38
2019-02-16T17:37:50.495Z,14.17
2019-02-16T17:40:35.423Z,17.62
2019-02-16T17:43:14.461Z,18.62
2019-02-16T17:45:44.588Z,15.30
2019-02-16T17:48:23.734Z,15.53
2019-02-16T17:50:55.913Z,14.35
2019-02-16T17:53:28.996Z,13.97
2019-02-16T17:59:06.007Z,14.77
2019-02-16T18:01:47.780Z,18.02
2019-02-16T18:04:17.933Z,18.03
2019-02-16T18:06:50.728Z,16.40
2019-02-16T18:09:35.783Z,16.50
2019-02-16T18:12:11.859Z,16.60
2019-02-16T18:14:44.394Z,14.50
2019-02-16T18:17:14.543Z,13.93
2019-02-16T18:19:47.528Z,18.57
2019-02-16T18:22:26.595Z,16.47
2019-02-16T18:25:11.643Z,16.97
2019-02-16T18:27:59.741Z,19.00
2019-02-16T18:30:29.927Z,26.63
2019-02-16T18:33:03.269Z,27.43
2019-02-16T18:35:45.742Z,24.43
2019-02-16T18:38:32.109Z,26.90
2019-02-16T18:41:15.321Z,22.90
2019-02-16T18:44:07.548Z,23.10
2019-02-16T18:46:43.447Z,20.40
2019-02-16T18:49:18.364Z,24.23
2019-02-16T18:51:54.218Z,22.97
2019-02-16T18:54:30.327Z,23.87
2019-02-16T18:57:07.054Z,21.17
2019-02-16T19:00:03.253Z,25.30
2019-02-16T19:02:45.672Z,19.90
2019-02-16T19:05:22.166Z,20.53
2019-02-16T19:08:00.807Z,23.30
2019-02-16T19:10:33.860Z,20.30
2019-02-16T19:13:04.029Z,25.90
2019-02-16T19:15:34.175Z,24.47
2019-02-16T19:18:18.109Z,17.80
2019-02-16T19:20:51.066Z,17.03
2019-02-16T19:23:33.476Z,19.30
2019-02-16T19:26:06.148Z,20.67
2019-02-16T19:28:49.280Z,19.10
2019-02-16T19:31:22.536Z,17.20
2019-02-16T19:34:08.724Z,17.97
2019-02-16T19:36:41.650Z,20.73
2019-02-16T19:39:14.491Z,15.03
2019-02-16T19:42:00.076Z,15.97
2019-02-16T19:44:30.234Z,16.50
2019-02-16T19:47:15.346Z,23.97
2019-02-16T19:49:57.251Z,16.90
2019-02-16T19:52:27.344Z,13.97
2019-02-16T19:54:57.497Z,12.63
2019-02-16T19:57:39.502Z,13.30
2019-02-16T20:00:21.951Z,11.90
2019-02-16T20:02:52.153Z,12.20
2019-02-16T20:05:24.726Z,12.90
2019-02-16T20:07:54.846Z,13.40
2019-02-16T20:10:25.016Z,12.70
2019-02-16T20:13:16.894Z,13.93
2019-02-16T20:15:46.987Z,13.97
2019-02-16T20:18:32.375Z,13.33
2019-02-16T20:21:02.485Z,13.80
2019-02-16T20:23:41.748Z,12.63
2019-02-16T20:26:11.953Z,14.37
2019-02-16T20:28:53.832Z,13.23
2019-02-16T20:31:32.626Z,14.00
2019-02-16T20:34:08.434Z,12.40
2019-02-16T20:36:50.803Z,13.00
2019-02-16T20:39:39.004Z,12.53
2019-02-16T20:42:12.239Z,11.73
2019-02-16T20:44:45.059Z,11.30
2019-02-16T20:47:27.155Z,11.80
2019-02-16T20:50:13.725Z,11.00
2019-02-16T20:53:00.189Z,10.60
2019-02-16T20:55:33.988Z,13.57
2019-02-16T20:58:12.785Z,12.43
2019-02-16T21:00:48.470Z,12.40
2019-02-16T21:03:24.203Z,12.60
2019-02-16T21:06:12.447Z,12.40
2019-02-16T21:08:57.600Z,12.00
2019-02-16T21:11:30.774Z,12.13
2019-02-16T21:14:13.200Z,11.60
2019-02-16T21:16:43.293Z,11.80
2019-02-16T21:19:16.190Z,12.90
2019-02-16T21:22:02.997Z,11.20
2019-02-16T21:24:33.154Z,11.07
2019-02-16T21:27:03.321Z,10.83
2019-02-16T21:29:36.703Z,11.27
2019-02-16T21:32:25.199Z,11.40
2019-02-16T21:34:55.430Z,11.00
2019-02-16T21:37:28.488Z,11.13
2019-02-16T21:39:58.606Z,10.30
2019-02-16T21:42:34.493Z,11.27
2019-02-16T21:45:07.629Z,11.70
2019-02-16T21:47:59.752Z,10.23
2019-02-16T21:50:32.499Z,10.60
2019-02-16T21:53:20.822Z,11.47
2019-02-16T21:55:46.157Z,10.93
2019-02-16T21:58:16.247Z,11.53
2019-02-16T22:01:04.199Z,11.03
2019-02-16T22:03:37.095Z,11.50
2019-02-16T22:06:20.955Z,10.80
2019-02-16T22:08:57.059Z,11.70
2019-02-16T22:11:30.203Z,10.37
2019-02-16T22:13:58.671Z,12.20
2019-02-16T22:16:27.153Z,11.43
2019-02-16T22:18:55.631Z,10.67
2019-02-16T22:21:24.089Z,11.00
2019-02-16T22:23:52.560Z,11.20
2019-02-16T22:26:20.993Z,10.57
2019-02-16T22:28:49.451Z,10.97
2019-02-16T22:31:18.015Z,11.50
2019-02-16T22:33:46.653Z,12.43
2019-02-16T22:36:15.089Z,12.70
2019-02-16T22:38:49.324Z,12.10
2019-02-16T22:41:17.771Z,12.87
2019-02-16T22:43:46.239Z,12.03
2019-02-16T22:46:14.696Z,11.97
2019-02-16T22:48:43.230Z,11.47
2019-02-16T22:51:11.804Z,11.27
2019-02-16T22:53:41.020Z,11.17
2019-02-16T22:56:15.230Z,12.03
2019-02-16T22:58:43.748Z,12.93
2019-02-16T23:01:12.349Z,11.37
2019-02-16T23:03:40.787Z,12.03
2019-02-16T23:06:09.338Z,11.63
2019-02-16T23:08:37.784Z,11.50
2019-02-16T23:11:06.411Z,10.90
2019-02-16T23:13:34.848Z,11.93
2019-02-16T23:16:03.441Z,12.30
2019-02-16T23:18:31.988Z,12.23
2019-02-16T23:21:00.480Z,12.10
2019-02-16T23:23:28.981Z,12.23
2019-02-16T23:25:57.537Z,11.90
2019-02-16T23:28:26.065Z,11.97
2019-02-16T23:30:54.533Z,12.83
2019-02-16T23:33:22.970Z,12.60
2019-02-16T23:35:51.435Z,12.80
2019-02-16T23:38:19.880Z,11.90
2019-02-16T23:40:48.321Z,13.53
2019-02-16T23:43:16.840Z,12.40
2019-02-16T23:45:45.301Z,12.27
2019-02-16T23:48:13.783Z,12.60
2019-02-16T23:50:42.311Z,12.30
2019-02-16T23:53:10.831Z,12.17
2019-02-16T23:55:39.588Z,12.37
2019-02-16T23:58:08.307Z,11.97
